Time;durP1;ratioP1;P1;durP2;ratioP2;P2;SDS_P1;SDS_P2;PMS_P1;PMS_P2;Temp;Humidity;BMP_temperature;BMP_pressure;BME280_temperature;BME280_humidity;BME280_pressure;Samples;Min_cycle;Max_cycle;Signal;HPM_P1;HPM_P2
2023/01/03 00:00:47;;;;;;;4.30;2.70;;;;;;;11.17;88.35;99202.91;4048127;29;20636;-92
2023/01/03 00:02:50;;;;;;;3.87;2.50;;;;;;;11.13;88.42;99207.44;4042534;29;20647;-92
2023/01/03 00:04:54;;;;;;;3.30;2.93;;;;;;;11.15;87.54;99210.81;4063293;29;21060;-92
2023/01/03 00:06:57;;;;;;;3.20;2.70;;;;;;;11.15;88.53;99213.41;4073132;29;20638;-92
2023/01/03 00:09:01;;;;;;;3.10;2.40;;;;;;;11.14;88.74;99211.75;4061385;29;20680;-92
2023/01/03 00:11:11;;;;;;;3.00;2.60;;;;;;;11.15;88.98;99209.97;4049806;29;20647;-91
2023/01/03 00:13:13;;;;;;;2.80;2.40;;;;;;;11.14;88.13;99221.34;4045110;29;20690;-92
2023/01/03 00:15:17;;;;;;;3.00;2.30;;;;;;;11.10;88.25;99219.81;4059824;29;20642;-92
2023/01/03 00:17:21;;;;;;;3.10;2.40;;;;;;;11.11;89.04;99219.75;4047815;29;20693;-91
2023/01/03 00:19:26;;;;;;;3.47;2.50;;;;;;;11.11;87.52;99218.88;4059318;29;20739;-92
2023/01/03 00:21:29;;;;;;;2.87;2.37;;;;;;;11.09;88.82;99221.56;4060790;29;20658;-92
2023/01/03 00:23:33;;;;;;;3.07;2.73;;;;;;;11.09;88.02;99221.56;4063628;29;21245;-91
2023/01/03 00:25:36;;;;;;;3.07;2.43;;;;;;;11.08;88.59;99227.75;4059361;29;20751;-92
2023/01/03 00:27:39;;;;;;;3.87;2.93;;;;;;;11.07;88.04;99231.25;4044295;29;21038;-92
2023/01/03 00:29:42;;;;;;;4.00;2.80;;;;;;;11.04;87.92;99228.81;4047645;29;20642;-92
2023/01/03 00:31:46;;;;;;;3.57;2.87;;;;;;;11.01;87.83;99221.13;4062009;29;20646;-92
2023/01/03 00:33:50;;;;;;;2.80;2.50;;;;;;;11.03;89.09;99215.84;4063394;29;20674;-91
2023/01/03 00:35:53;;;;;;;5.40;2.33;;;;;;;11.01;88.43;99222.91;4060602;29;20651;-91
2023/01/03 00:37:56;;;;;;;2.83;2.50;;;;;;;10.99;87.78;99232.56;4044514;29;20684;-91
2023/01/03 00:40:00;;;;;;;2.90;2.60;;;;;;;10.95;89.12;99231.88;4060585;29;20647;-92
2023/01/03 00:42:03;;;;;;;2.70;2.10;;;;;;;10.93;88.56;99220.69;4057833;29;21201;-92
2023/01/03 00:44:06;;;;;;;3.63;2.50;;;;;;;10.92;88.46;99223.38;4057251;29;20654;-92
2023/01/03 00:46:11;;;;;;;2.77;2.40;;;;;;;10.87;88.90;99222.78;4046248;29;20636;-92
2023/01/03 00:48:14;;;;;;;3.07;2.30;;;;;;;10.85;89.64;99228.09;4063877;29;20674;-92
2023/01/03 00:50:19;;;;;;;4.30;2.50;;;;;;;10.82;88.58;99216.94;4044181;29;20735;-92
2023/01/03 00:52:22;;;;;;;2.67;2.20;;;;;;;10.81;88.94;99223.09;4059047;29;20643;-92
2023/01/03 00:54:25;;;;;;;4.80;2.60;;;;;;;10.73;90.11;99221.78;4059123;29;20643;-91
2023/01/03 00:56:30;;;;;;;3.87;2.40;;;;;;;10.67;89.52;99232.53;4047703;29;20639;-92
2023/01/03 00:58:34;;;;;;;2.60;2.10;;;;;;;10.66;90.36;99236.06;4062950;29;20661;-92
2023/01/03 01:00:38;;;;;;;3.43;2.43;;;;;;;10.67;89.17;99238.59;4073649;29;21043;-91
2023/01/03 01:02:41;;;;;;;3.27;2.30;;;;;;;10.70;90.58;99238.44;4073744;29;20633;-92
2023/01/03 01:04:44;;;;;;;2.70;2.40;;;;;;;10.67;89.32;99238.59;4040513;29;20646;-92
2023/01/03 01:06:52;;;;;;;2.87;2.33;;;;;;;10.68;90.40;99244.66;4058755;29;20628;-92
2023/01/03 01:08:57;;;;;;;3.30;2.50;;;;;;;10.66;89.02;99238.66;4065251;29;20670;-92
2023/01/03 01:11:02;;;;;;;5.23;3.70;;;;;;;10.66;89.81;99230.84;4045239;29;20658;-92
2023/01/03 01:13:06;;;;;;;6.40;3.80;;;;;;;10.67;89.43;99235.97;4046143;29;20674;-92
2023/01/03 01:15:09;;;;;;;4.33;3.43;;;;;;;10.67;89.57;99243.81;4041129;29;20656;-91
2023/01/03 01:17:12;;;;;;;3.40;2.83;;;;;;;10.66;90.29;99239.53;4056598;29;20675;-92
2023/01/03 01:19:26;;;;;;;3.27;2.70;;;;;;;10.66;89.15;99238.66;4055651;29;20702;-92
2023/01/03 01:21:31;;;;;;;8.20;5.90;;;;;;;10.63;89.58;99244.03;4057893;29;20666;-92
2023/01/03 01:23:37;;;;;;;5.60;3.70;;;;;;;10.62;90.34;99245.81;4057382;29;20644;-92
2023/01/03 01:25:41;;;;;;;6.33;4.03;;;;;;;10.62;89.75;99237.16;4070170;29;20741;-92
2023/01/03 01:27:45;;;;;;;4.17;3.77;;;;;;;10.63;89.46;99239.69;4055643;29;21542;-91
2023/01/03 01:29:48;;;;;;;5.30;4.27;;;;;;;10.58;90.07;99233.81;4070824;29;20780;-92
2023/01/03 01:31:51;;;;;;;5.70;3.93;;;;;;;10.56;89.92;99234.84;4070515;29;20754;-91
2023/01/03 01:33:55;;;;;;;8.43;5.40;;;;;;;10.56;89.64;99240.91;4046196;29;20643;-92
2023/01/03 01:35:59;;;;;;;6.80;4.80;;;;;;;10.53;89.88;99240.22;4041503;29;20644;-92
2023/01/03 01:38:02;;;;;;;5.50;3.57;;;;;;;10.50;89.95;99256.00;4055602;29;20663;-91
2023/01/03 01:40:08;;;;;;;6.40;3.60;;;;;;;10.46;89.53;99254.47;4047659;29;20668;-92
2023/01/03 01:44:52;;;;;;;7.00;4.57;;;;;;;10.43;89.55;99250.28;4040881;29;20637;-91
2023/01/03 01:46:55;;;;;;;3.37;2.70;;;;;;;10.40;89.98;99245.19;4070915;29;20638;-91
2023/01/03 01:49:04;;;;;;;3.50;3.03;;;;;;;10.32;90.35;99251.69;4057499;29;20670;-91
2023/01/03 01:51:08;;;;;;;3.37;2.83;;;;;;;10.31;90.33;99268.25;4070282;29;20681;-91
2023/01/03 01:53:15;;;;;;;3.60;2.60;;;;;;;10.25;90.09;99271.16;4056195;29;20679;-91
2023/01/03 01:55:22;;;;;;;3.67;2.80;;;;;;;10.26;89.75;99270.25;4059008;29;20626;-92
2023/01/03 01:57:25;;;;;;;4.20;2.50;;;;;;;10.26;90.16;99272.03;4061564;29;20635;-91
2023/01/03 01:59:29;;;;;;;3.80;2.80;;;;;;;10.28;89.89;99271.00;4060768;29;20643;-92
2023/01/03 02:01:33;;;;;;;7.43;3.00;;;;;;;10.29;90.38;99275.31;4056746;29;20726;-91
2023/01/03 02:03:37;;;;;;;3.13;2.65;;;;;;;10.32;90.76;99272.56;4043298;29;20638;-92
2023/01/03 02:05:45;;;;;;;2.80;2.50;;;;;;;10.33;90.64;99279.47;4045373;29;20333;-91
2023/01/03 02:07:49;;;;;;;3.10;2.53;;;;;;;10.35;91.19;99282.84;4042739;29;20641;-92
2023/01/03 02:09:55;;;;;;;3.50;3.03;;;;;;;10.34;90.99;99281.13;4045373;29;21040;-92
2023/01/03 02:14:37;;;;;;;3.90;2.80;;;;;;;10.35;89.84;99277.63;4036889;29;20766;-92
2023/01/03 02:16:52;;;;;;;3.60;3.10;;;;;;;10.33;90.01;99274.25;4046147;29;20706;-92
2023/01/03 02:19:02;;;;;;;4.13;2.80;;;;;;;10.35;90.91;99278.47;4058317;29;20670;-93
2023/01/03 02:21:44;;;;;;;3.63;3.03;;;;;;;10.36;90.50;99259.28;4060463;29;20662;-91
2023/01/03 02:24:14;;;;;;;3.23;2.70;;;;;;;10.37;91.51;99262.75;4045057;29;20702;-91
2023/01/03 02:26:58;;;;;;;3.73;3.03;;;;;;;10.40;90.74;99260.84;4037042;29;20639;-92
2023/01/03 02:29:17;;;;;;;4.20;2.87;;;;;;;10.41;91.27;99262.50;4045448;29;20758;-92
2023/01/03 02:31:28;;;;;;;3.53;2.43;;;;;;;10.42;91.01;99266.81;4060410;29;20676;-92
2023/01/03 02:33:36;;;;;;;3.00;2.50;;;;;;;10.36;90.19;99277.56;4059209;29;20646;-92
2023/01/03 02:35:44;;;;;;;2.70;2.43;;;;;;;10.31;90.08;99270.03;4044406;29;20658;-91
2023/01/03 02:37:53;;;;;;;2.70;2.37;;;;;;;10.28;90.77;99271.00;4072297;29;20633;-92
2023/01/03 02:40:00;;;;;;;3.50;2.77;;;;;;;10.28;91.25;99276.22;4045937;29;20647;-92
2023/01/03 02:44:34;;;;;;;3.53;2.73;;;;;;;10.24;89.90;99269.47;4053963;29;20638;-92
2023/01/03 02:46:43;;;;;;;3.70;2.90;;;;;;;10.20;90.52;99254.91;4041338;29;20636;-92
2023/01/03 02:48:50;;;;;;;3.37;2.73;;;;;;;10.19;90.58;99273.22;4043955;29;20670;-92
2023/01/03 02:50:56;;;;;;;3.53;2.43;;;;;;;10.17;90.66;99267.25;4046806;29;20648;-92
2023/01/03 02:53:04;;;;;;;2.93;2.40;;;;;;;10.15;90.74;99264.72;4061236;29;20640;-92
2023/01/03 02:55:11;;;;;;;2.80;2.30;;;;;;;10.12;90.85;99264.84;4062543;29;21109;-92
2023/01/03 02:57:16;;;;;;;4.27;2.80;;;;;;;10.10;91.24;99264.09;4059321;29;21224;-91
2023/01/03 02:59:23;;;;;;;2.67;2.47;;;;;;;10.10;90.61;99260.63;4048936;29;20707;-91
2023/01/03 03:01:28;;;;;;;2.93;2.60;;;;;;;10.07;90.51;99266.84;4048434;29;20636;-92
2023/01/03 03:03:36;;;;;;;3.07;2.33;;;;;;;10.03;90.10;99270.50;4044036;29;21207;-92
2023/01/03 03:05:45;;;;;;;4.30;2.53;;;;;;;10.02;90.34;99266.19;4045476;29;20643;-92
2023/01/03 03:07:48;;;;;;;3.07;2.60;;;;;;;9.99;91.31;99270.72;4045630;29;20646;-92
2023/01/03 03:14:36;;;;;;;3.60;2.30;;;;;;;9.89;90.31;99267.69;4062865;29;21315;-92
2023/01/03 03:16:51;;;;;;;3.17;2.87;;;;;;;9.84;90.30;99272.22;4047403;29;20643;-92
2023/01/03 03:19:00;;;;;;;2.90;2.60;;;;;;;9.80;90.38;99271.63;4046582;29;20660;-92
2023/01/03 03:25:54;;;;;;;2.90;2.17;;;;;;;9.66;90.41;99271.41;4066525;29;20643;-92
2023/01/03 03:30:22;;;;;;;2.43;2.13;;;;;;;9.65;91.14;99272.31;4045634;29;20721;-92
2023/01/03 03:32:28;;;;;;;2.33;2.13;;;;;;;9.66;91.17;99271.41;4060859;29;21241;-91
2023/01/03 03:34:37;;;;;;;2.97;2.53;;;;;;;9.68;91.78;99270.44;4047196;29;20200;-92
2023/01/03 03:36:46;;;;;;;2.97;2.50;;;;;;;9.70;91.65;99276.41;4046288;29;20624;-91
2023/01/03 03:38:50;;;;;;;3.03;2.60;;;;;;;9.67;91.64;99265.31;4047604;29;21010;-91
2023/01/03 03:45:51;;;;;;;2.90;2.60;;;;;;;9.49;90.12;99263.53;4060151;29;20282;-91
2023/01/03 03:47:59;;;;;;;2.97;2.50;;;;;;;9.44;90.66;99257.66;4043803;29;20689;-92
2023/01/03 03:50:06;;;;;;;3.60;2.78;;;;;;;9.43;91.40;99256.00;4045497;29;20235;-91
2023/01/03 03:52:13;;;;;;;3.38;2.70;;;;;;;9.36;91.25;99261.53;4047765;29;20215;-91
2023/01/03 03:54:20;;;;;;;3.25;2.75;;;;;;;9.30;91.97;99262.66;4049266;29;20263;-91
2023/01/03 03:56:27;;;;;;;2.42;2.22;;;;;;;9.27;92.33;99265.38;4043872;29;20275;-91
2023/01/03 03:58:33;;;;;;;4.70;2.67;;;;;;;9.24;92.01;99260.31;4060962;29;20266;-91
2023/01/03 04:00:39;;;;;;;3.78;3.10;;;;;;;9.22;92.95;99266.53;4061966;29;20634;-91
2023/01/03 04:02:45;;;;;;;4.10;2.72;;;;;;;9.23;92.69;99273.41;4060792;29;20207;-91
2023/01/03 04:04:50;;;;;;;3.20;2.90;;;;;;;9.24;93.09;99269.91;4076575;29;20242;-91
2023/01/03 04:06:54;;;;;;;3.67;2.90;;;;;;;9.23;93.27;99265.59;4060496;29;20211;-91
2023/01/03 04:08:58;;;;;;;4.20;2.60;;;;;;;9.26;92.92;99270.66;4044960;29;20695;-91
2023/01/03 04:11:05;;;;;;;2.90;2.53;;;;;;;9.28;92.75;99281.88;4047013;29;20651;-93
2023/01/03 04:13:08;;;;;;;3.25;2.60;;;;;;;9.29;93.41;99274.00;4060692;29;20639;-91
2023/01/03 04:15:12;;;;;;;2.80;2.50;;;;;;;9.33;92.60;99275.53;4061463;29;20213;-93
2023/01/03 04:17:16;;;;;;;2.53;2.33;;;;;;;9.34;92.73;99286.81;4048613;29;21540;-93
2023/01/03 04:19:19;;;;;;;3.78;2.35;;;;;;;9.33;92.85;99291.16;4063838;29;21617;-93
2023/01/03 04:21:22;;;;;;;2.57;2.37;;;;;;;9.29;92.70;99284.41;4065789;29;20784;-93
2023/01/03 04:23:27;;;;;;;3.07;2.70;;;;;;;9.29;92.37;99289.63;4062935;29;21018;-93
2023/01/03 04:25:30;;;;;;;3.70;2.80;;;;;;;9.24;92.32;99281.13;4057879;29;21292;-93
2023/01/03 04:27:34;;;;;;;2.77;2.43;;;;;;;9.21;91.84;99288.25;4047610;29;21250;-93
2023/01/03 04:29:37;;;;;;;3.70;2.37;;;;;;;9.13;91.59;99279.94;4061752;29;20650;-93
2023/01/03 04:31:41;;;;;;;3.20;2.77;;;;;;;9.07;90.93;99281.03;4044927;29;20632;-92
2023/01/03 04:33:45;;;;;;;3.70;2.30;;;;;;;8.97;90.89;99281.50;4065715;29;20630;-92
2023/01/03 04:35:48;;;;;;;3.15;2.75;;;;;;;8.96;91.46;99283.25;4049831;29;20929;-92
2023/01/03 04:37:51;;;;;;;3.43;2.50;;;;;;;8.90;90.68;99279.22;4042189;29;20216;-92
2023/01/03 04:39:59;;;;;;;4.07;3.20;;;;;;;8.77;90.75;99281.50;4063009;29;20694;-92
2023/01/03 04:44:00;;;;;;;3.70;2.97;;;;;;;8.66;90.39;99277.66;4059811;29;20289;-92
2023/01/03 04:44:24;;;;;;;3.83;3.20;;;;;;;8.63;89.52;99280.38;4046340;29;20650;-92
2023/01/03 04:46:28;;;;;;;6.97;3.33;;;;;;;8.58;90.19;99277.97;4061028;29;20238;-93
2023/01/03 04:48:31;;;;;;;4.17;2.60;;;;;;;8.58;90.67;99277.13;4061272;29;20762;-93
2023/01/03 04:50:35;;;;;;;4.50;2.92;;;;;;;8.56;91.03;99277.19;4046263;29;21290;-93
2023/01/03 04:52:38;;;;;;;3.78;2.88;;;;;;;8.59;90.59;99278.84;4042347;29;20212;-93
2023/01/03 04:54:41;;;;;;;4.40;2.70;;;;;;;8.61;91.51;99277.00;4061197;29;20221;-93
2023/01/03 04:56:46;;;;;;;4.07;2.90;;;;;;;8.64;91.49;99280.31;4048313;29;20244;-93
2023/01/03 04:58:49;;;;;;;5.22;2.53;;;;;;;8.64;91.54;99279.47;4060129;29;20235;-93
2023/01/03 05:00:53;;;;;;;4.35;2.45;;;;;;;8.67;91.85;99275.00;4046700;29;20211;-94
2023/01/03 05:02:56;;;;;;;3.42;2.33;;;;;;;8.69;92.61;99281.00;4056931;29;20210;-94
2023/01/03 05:04:59;;;;;;;3.20;2.50;;;;;;;8.65;92.22;99282.00;4047955;29;20275;-93
2023/01/03 05:07:02;;;;;;;2.45;2.25;;;;;;;8.65;91.40;99286.38;4043950;29;20235;-93
2023/01/03 05:09:05;;;;;;;3.65;2.70;;;;;;;8.68;91.79;99288.84;4058062;29;20232;-93
2023/01/03 05:11:09;;;;;;;2.92;2.35;;;;;;;8.63;91.37;99295.97;4063391;29;20254;-94
2023/01/03 05:13:13;;;;;;;3.40;2.50;;;;;;;8.57;90.96;99297.09;4061246;29;20308;-93
2023/01/03 05:15:16;;;;;;;2.72;2.45;;;;;;;8.47;89.67;99293.16;4059984;29;20215;-94
2023/01/03 05:17:20;;;;;;;4.55;2.92;;;;;;;8.41;89.59;99294.34;4047733;29;20207;-94
2023/01/03 05:19:23;;;;;;;3.40;2.50;;;;;;;8.32;88.99;99292.13;4048456;29;20298;-94
2023/01/03 05:26:10;;;;;;;6.72;3.35;;;;;;;8.12;89.32;99284.28;4060440;29;20688;-94
2023/01/03 05:28:15;;;;;;;4.18;2.80;;;;;;;8.07;89.90;99280.97;4064012;29;20791;-93
2023/01/03 05:30:19;;;;;;;4.07;2.95;;;;;;;8.01;90.44;99282.06;4059708;29;20364;-93
2023/01/03 05:32:23;;;;;;;3.28;2.97;;;;;;;7.96;91.18;99291.75;4057646;29;20702;-93
2023/01/03 05:34:27;;;;;;;4.55;3.20;;;;;;;7.97;91.88;99292.63;4056364;29;20206;-93
2023/01/03 05:36:30;;;;;;;4.82;3.63;;;;;;;7.98;91.26;99295.16;4043966;29;20239;-93
2023/01/03 05:38:33;;;;;;;3.90;2.95;;;;;;;7.99;91.40;99296.84;4077875;29;20198;-93
2023/01/03 05:40:37;;;;;;;3.38;2.80;;;;;;;7.98;92.02;99294.31;4043583;29;20322;-93
2023/01/03 05:42:44;;;;;;;4.50;3.10;;;;;;;7.97;91.43;99297.81;4056954;29;20208;-93
2023/01/03 05:44:49;;;;;;;4.25;2.88;;;;;;;7.93;92.21;99303.19;4047791;29;20309;-93
2023/01/03 05:46:53;;;;;;;3.65;2.85;;;;;;;7.88;91.42;99303.38;4072017;29;20225;-93
2023/01/03 05:48:56;;;;;;;4.97;2.90;;;;;;;7.86;90.47;99301.72;4041291;29;20204;-93
2023/01/03 05:50:59;;;;;;;3.20;2.78;;;;;;;7.83;91.07;99307.03;4062964;29;20749;-93
2023/01/03 05:53:03;;;;;;;4.10;2.63;;;;;;;7.77;90.12;99310.72;4072177;29;20210;-94
2023/01/03 05:55:07;;;;;;;2.95;2.40;;;;;;;7.77;91.30;99309.88;4059190;29;20198;-93
2023/01/03 05:57:10;;;;;;;2.60;2.28;;;;;;;7.76;90.63;99303.84;4063572;29;20210;-93
2023/01/03 05:59:14;;;;;;;2.30;1.80;;;;;;;7.73;91.44;99310.91;4056435;29;20213;-93
2023/01/03 06:01:20;;;;;;;3.35;2.13;;;;;;;7.69;91.09;99304.13;4073782;29;20669;-93
2023/01/03 06:03:23;;;;;;;5.03;2.40;;;;;;;7.66;91.58;99312.84;4060693;29;20210;-93
2023/01/03 06:05:26;;;;;;;2.97;2.20;;;;;;;7.67;90.97;99324.13;4075560;29;20746;-95
2023/01/03 06:07:33;;;;;;;3.40;2.78;;;;;;;7.67;91.18;99329.31;4044787;29;21125;-95
2023/01/03 06:09:36;;;;;;;3.40;3.03;;;;;;;7.57;91.36;99327.94;4041005;29;20231;-94
2023/01/03 06:11:40;;;;;;;11.00;3.05;;;;;;;7.53;91.98;99334.13;4042431;29;20251;-95
2023/01/03 06:13:44;;;;;;;3.40;2.80;;;;;;;7.45;90.01;99327.53;4044360;29;20240;-94
2023/01/03 06:17:53;;;;;;;5.72;3.70;;;;;;;7.39;90.65;99325.16;4046066;29;20610;-94
2023/01/03 06:18:11;;;;;;;4.07;3.40;;;;;;;7.34;90.12;99320.16;4058198;29;20233;-94
2023/01/03 06:20:14;;;;;;;6.53;3.08;;;;;;;7.30;89.51;99325.50;4045933;29;20295;-94
2023/01/03 06:22:18;;;;;;;5.35;3.13;;;;;;;7.26;90.56;99329.97;4057072;29;20246;-94
2023/01/03 06:24:21;;;;;;;3.85;3.33;;;;;;;7.27;90.38;99329.03;4046087;29;20626;-94
2023/01/03 06:26:25;;;;;;;3.83;3.20;;;;;;;7.27;90.39;99333.38;4061496;29;20293;-94
2023/01/03 06:28:28;;;;;;;6.85;4.32;;;;;;;7.24;91.15;99326.53;4063488;29;20207;-94
2023/01/03 06:30:32;;;;;;;7.03;3.80;;;;;;;7.23;91.05;99337.84;4053827;29;20200;-94
2023/01/03 06:32:35;;;;;;;8.07;4.15;;;;;;;7.21;91.27;99337.03;4057562;29;20214;-93
2023/01/03 06:34:41;;;;;;;4.55;3.90;;;;;;;7.22;91.76;99336.13;4042546;29;20230;-94
2023/01/03 06:36:44;;;;;;;5.68;4.68;;;;;;;7.20;92.05;99332.78;4055305;29;20243;-94
2023/01/03 06:38:48;;;;;;;5.72;4.20;;;;;;;7.18;91.74;99334.53;4056565;29;20203;-94
2023/01/03 06:40:51;;;;;;;6.90;4.18;;;;;;;7.18;92.28;99331.94;4059046;29;20267;-94
2023/01/03 06:42:54;;;;;;;5.47;4.15;;;;;;;7.17;91.78;99334.59;4058735;29;20577;-94
2023/01/03 06:54:37;;;;;;;4.15;3.75;;;;;;;7.00;90.98;99333.50;4020069;29;20207;-94
2023/01/03 06:56:41;;;;;;;7.10;3.90;;;;;;;7.01;91.73;99335.22;4057976;29;20199;-94
2023/01/03 06:58:44;;;;;;;4.22;3.75;;;;;;;6.97;91.42;99344.81;4043086;29;20554;-94
2023/01/03 07:00:47;;;;;;;6.32;4.00;;;;;;;6.97;92.32;99338.78;4074710;29;20308;-95
2023/01/03 07:02:51;;;;;;;9.10;3.88;;;;;;;6.99;91.37;99347.34;4058669;29;20240;-95
2023/01/03 07:04:56;;;;;;;3.90;3.35;;;;;;;6.96;92.38;99342.28;4055734;29;20217;-94
2023/01/03 07:07:00;;;;;;;5.20;3.55;;;;;;;6.95;92.31;99356.16;4055699;29;20212;-94
2023/01/03 07:09:04;;;;;;;4.50;3.35;;;;;;;6.87;92.53;99352.97;4055124;29;20234;-94
2023/01/03 07:11:08;;;;;;;6.00;5.28;;;;;;;6.86;92.71;99353.88;4065815;29;20245;-96
2023/01/03 07:15:32;;;;;;;7.28;3.88;;;;;;;6.76;91.32;99368.03;4058381;29;20227;-95
2023/01/03 07:17:35;;;;;;;4.60;3.85;;;;;;;6.73;91.48;99368.13;4054120;29;20287;-96
2023/01/03 07:19:38;;;;;;;4.75;3.60;;;;;;;6.70;90.04;99365.63;4064678;29;20643;-96
2023/01/03 07:21:51;;;;;;;4.40;3.22;;;;;;;6.69;89.49;99358.75;4059005;29;20223;-94
2023/01/03 07:24:03;;;;;;;4.95;4.28;;;;;;;6.64;89.60;99345.09;4057747;29;20221;-96
2023/01/03 07:26:13;;;;;;;6.72;3.85;;;;;;;6.64;90.64;99355.47;4054205;29;20216;-95
2023/01/03 07:28:23;;;;;;;4.45;3.90;;;;;;;6.65;90.87;99357.16;4061078;29;20215;-96
2023/01/03 07:30:39;;;;;;;5.15;4.15;;;;;;;6.65;90.75;99362.34;4086270;29;20217;-96
2023/01/03 07:32:43;;;;;;;5.53;3.97;;;;;;;6.63;91.00;99358.94;4057531;29;20694;-96
2023/01/03 07:34:47;;;;;;;4.63;4.10;;;;;;;6.62;91.14;99370.22;4075328;29;20195;-96
2023/01/03 07:36:57;;;;;;;5.55;3.20;;;;;;;6.66;91.14;99369.22;4060059;29;20218;-96
2023/01/03 07:39:07;;;;;;;6.50;4.55;;;;;;;6.68;92.32;99372.63;4079943;29;20216;-96
2023/01/03 07:41:19;;;;;;;8.55;6.60;;;;;;;6.67;92.08;99370.91;4061565;29;20239;-96
2023/01/03 07:43:36;;;;;;;8.50;5.45;;;;;;;6.73;92.21;99381.09;4063772;29;20214;-96
2023/01/03 07:45:42;;;;;;;8.40;5.78;;;;;;;6.70;91.70;99376.00;4059116;29;20207;-96
2023/01/03 07:47:47;;;;;;;8.05;5.10;;;;;;;6.72;91.52;99384.56;4057337;29;20211;-96
2023/01/03 07:49:51;;;;;;;6.60;5.13;;;;;;;6.67;91.16;99383.88;4055876;29;20225;-96
2023/01/03 07:51:56;;;;;;;7.35;4.90;;;;;;;6.66;91.60;99385.63;4052398;29;20271;-96
2023/01/03 07:54:01;;;;;;;5.60;4.45;;;;;;;6.71;90.86;99382.88;4044979;29;20214;-96
2023/01/03 07:56:06;;;;;;;6.22;5.03;;;;;;;6.74;92.13;99387.97;4061609;29;20237;-96
2023/01/03 07:58:15;;;;;;;9.32;5.38;;;;;;;6.81;91.72;99399.81;4050413;29;20224;-94
2023/01/03 08:00:20;;;;;;;6.85;5.22;;;;;;;6.85;91.74;99394.50;4063108;29;20207;-96
2023/01/03 08:02:27;;;;;;;6.28;5.25;;;;;;;6.95;92.46;99395.06;4060319;29;20359;-94
2023/01/03 08:04:32;;;;;;;5.90;5.30;;;;;;;7.06;92.47;99397.22;4066005;29;20216;-96
2023/01/03 08:06:37;;;;;;;6.40;5.05;;;;;;;7.13;91.23;99406.50;4056278;29;20244;-95
2023/01/03 08:08:42;;;;;;;6.30;4.75;;;;;;;7.21;91.53;99406.22;4056974;29;20255;-95
2023/01/03 08:13:17;;;;;;;5.63;4.40;;;;;;;7.34;91.54;99416.16;4044076;29;20248;-95
2023/01/03 08:15:21;;;;;;;5.47;4.70;;;;;;;7.37;92.12;99416.03;4047151;29;20225;-95
2023/01/03 08:17:27;;;;;;;9.15;4.35;;;;;;;7.42;91.48;99421.06;4042133;29;20207;-95
2023/01/03 08:19:32;;;;;;;7.57;4.75;;;;;;;7.48;91.95;99431.25;4048131;29;20212;-96
2023/01/03 08:21:36;;;;;;;5.78;4.10;;;;;;;7.53;92.42;99423.25;4049474;29;20222;-95
2023/01/03 08:23:42;;;;;;;8.93;5.93;;;;;;;7.54;90.79;99429.28;4052675;29;20210;-95
2023/01/03 08:25:46;;;;;;;13.05;5.80;;;;;;;7.58;90.53;99423.09;4067164;29;20214;-95
2023/01/03 08:27:51;;;;;;;5.90;5.10;;;;;;;7.61;90.64;99422.97;4046303;29;20211;-95
2023/01/03 08:29:55;;;;;;;7.10;5.22;;;;;;;7.63;91.11;99426.34;4051955;29;20222;-96
2023/01/03 08:32:54;;;;;;;10.50;5.80;;;;;;;7.69;90.54;99428.72;4063980;29;20361;-96
2023/01/03 08:35:00;;;;;;;6.32;5.03;;;;;;;7.68;90.76;99433.09;4050099;29;20218;-96
2023/01/03 08:37:06;;;;;;;9.05;5.32;;;;;;;7.69;91.26;99436.53;4054531;29;20206;-96
2023/01/03 08:39:14;;;;;;;6.80;5.32;;;;;;;7.68;91.32;99434.81;4050464;29;20202;-96
2023/01/03 08:41:32;;;;;;;7.03;5.30;;;;;;;7.66;90.65;99426.25;4076312;29;20209;-96
2023/01/03 08:43:47;;;;;;;6.60;4.82;;;;;;;7.65;90.34;99435.78;4076494;29;20402;-96
2023/01/03 08:46:04;;;;;;;8.18;5.40;;;;;;;7.69;91.17;99433.94;4079997;29;20297;-96
2023/01/03 08:48:12;;;;;;;7.65;5.30;;;;;;;7.70;91.37;99436.47;4047602;29;20207;-96
2023/01/03 08:50:23;;;;;;;8.70;5.45;;;;;;;7.70;91.72;99441.66;4060235;29;20259;-96
2023/01/03 08:52:35;;;;;;;28.45;8.25;;;;;;;7.69;90.29;99439.13;4064879;29;20219;-96
2023/01/03 08:54:43;;;;;;;14.95;7.22;;;;;;;7.67;91.43;99446.97;4064430;29;20688;-96
2023/01/03 08:56:47;;;;;;;9.68;6.10;;;;;;;7.68;91.83;99453.00;4055295;29;20214;-96
2023/01/03 08:58:51;;;;;;;8.95;6.05;;;;;;;7.69;91.58;99452.94;4067731;29;20237;-96
2023/01/03 09:00:54;;;;;;;9.27;7.13;;;;;;;7.73;92.40;99454.53;4046542;29;20637;-95
2023/01/03 09:02:59;;;;;;;12.90;7.53;;;;;;;7.74;91.25;99458.84;4052071;29;20234;-96
2023/01/03 09:05:03;;;;;;;8.35;6.20;;;;;;;7.78;92.00;99452.63;4049609;29;20310;-95
2023/01/03 16:33:18;;;;;;;10.77;6.27;;;;;;;9.40;84.67;99420.97;4065643;29;20682;-93
2023/01/03 16:35:22;;;;;;;9.40;6.03;;;;;;;9.38;84.92;99419.34;4050070;29;20638;-95
2023/01/03 16:40:15;;;;;;;8.57;6.27;;;;;;;9.30;85.65;99421.44;4081282;29;20647;-96
